INFOJET
Metar trends

METAR/TAF(Classic format)(METAR/TAF Trend/History displayed directly below)
(enter CONUS apts starting with a K(eg. KMCC), enter Alaska/Hawaii apts starting with a P(eg. PANC))

Get Apt METAR code for recent obs


Get Apt METAR code for recent obs + Direct NWS Link (if METAR history doesn't display (which is often)


FAA Surface Weather Observation Stations ASOS/AWOS Readings with Map


NOAA ASOS Recent Observation History (click to select airport code)






PDX METAR history (last 5 updates)

FTUS46 KPQR 272037 AAD
 TAFPDX
 TAF AMD
 KPDX 272037Z 2721/2818 00000KT P6SM SKC
      FM281000 00000KT 1/2SM FG BKN007
      FM281200 00000KT 1/4SM FG OVC004
      FM281700 24002KT P6SM BKN250=

Recent Observations METAR KPDX 272115Z AUTO 31005KT 10SM CLR 13/03 A3040 METAR KPDX 272110Z AUTO 28005KT 10SM CLR 12/03 A3041 METAR KPDX 272100Z AUTO 30005KT 10SM CLR 12/04 A3041 METAR KPDX 272055Z AUTO 28004KT 10SM CLR 12/03 A3041 METAR KPDX 272053Z 27004KT 10SM CLR 12/03 A3042 AO2 SLP299 T01170033 58024




AvnWthrCntr_BCAWS

ADDS - METARS form results

Aviation Digital Data Service (ADDS)

Output produced by METARs form (2136 UTC 27 February 2020)
found at http://bcaws.aviationweather.gov/metar/data/
 
KPDX 272053Z 27004KT 10SM CLR 12/03 A3042 RMK AO2 SLP299 T01170033 58024
KPDX 271953Z 00000KT 10SM CLR 09/04 A3045 RMK AO2 SLP310 T00940039
KPDX 271853Z 00000KT 10SM FEW007 06/04 A3047 RMK AO2 SLP318 T00560039
KPDX 271843Z 00000KT 10SM SCT005 05/03 A3048 RMK AO2 T00500033
KPDX 271828Z 00000KT 8SM BKN005 05/04 A3048 RMK AO2 T00500039
KPDX 271807Z 00000KT 1 1/2SM BR OVC002 04/03 A3049 RMK AO2 T00440033
KPDX 271753Z 00000KT 1/2SM R10R/P6000FT FG VV002 04/03 A3049 RMK AO2 SLP324 T00390028 10039 20017 50000
KPDX 271750Z 00000KT 1/2SM R10R/P6000FT FG VV002 03/03 A3049 RMK AO2
KPDX 271727Z 32003KT 1/4SM R10R/1200V4500FT FG VV002 03/03 A3049 RMK AO2 T00330028
KPDX 271653Z 00000KT 1/4SM R10R/1200V1400FT FG VV002 03/02 A3049 RMK AO2 SLP326 T00280022
KPDX 271553Z 00000KT 1/4SM R10R/1000V1200FT FG VV002 03/02 A3049 RMK AO2 SLP324 T00280022
KPDX 271549Z 00000KT 1/4SM R10R/0800V1200FT FG VV002 03/02 A3049 RMK AO2
KPDX 271539Z 00000KT 1/4SM R10R/1000V2600FT FG VV002 03/02 A3049 RMK AO2 T00280022
KPDX 272037Z 2721/2818 00000KT P6SM SKC 
     FM281000 00000KT 1/2SM FG BKN007 
     FM281200 00000KT 1/4SM FG OVC004 
     FM281700 24002KT P6SM BKN250
       




5 min APT wthr

CWSU Observations






RELOAD current METAR trend





METAR Numeric Codes (usually listed after RMK)

1xxxxx___6-hr maximum temp(2nd digit=0 is positive, 1 is negative)(eg. 10405 = +40.5 degrees Celsius)

2xxxxx___6-hr minimum temp (eg. 21337 = -33.7 degrees Celsius)

4/xxx___Total snow depth in inches (eg. 4/020 = snow depth of 20 inches on ground)

4xxxxxxxx___24-hr maximum/minimum temperatures, 2nd and sixth digits equal 0 for positive and 1 for negative (eg. 401551095 = 24-hr maximum temp of +15.5 degrees Celsius and a 24-hr minimum temp of -9.5 degrees Celsius)

5xxxx___3 hour pressure tendency. The second digit gives the tendency/trend: 0–3 is rising, 4 is steady and 5–8 is falling , the last 3 digits give the pressure change in tenths of a millibar in the last 3 hours. (eg 50009 indicates a rising pressure tendency/trend of 0.9 millibars.)

6xxxx___3 or 6 hour precipitation amount. The last 4 digits are the inches of rain in hundredths. (eg. 60200 = 2 inches of rain)

7xxxx___24-hour precipitation amount. The last 4 digits are the inches of rain in hundredths. (eg. 70500 = 5 inches of rain)

8/xxx___Cloud cover using WMO code. Three digit code follows the /. Lower numbers are for clearer skies, high numbers are for overcast. (I have not seen this in the NorCal airport METARs yet).

98xxx___Duration of sunshine in minutes. The last three digits after 98 are minutes. (eg. 98120 = 120 minutes of sunshine)

931xxx___Snowfall in the last 6-hours. The last three digits display snowfall in inches and tenths. (eg. 931515 = 51.5 inches of snowfall)

933xxx___Liquid water equivalent of the snow (SWE). The last three digits display liquid water equivalent of snow in inches and tenths (eg. 933055 = 5.5 inches of liquid water in snow)


Other METAR codes
SLP155 = current barometric pressure extrapolated to sea level (SLP155 equals 1015.5 hPa)

Pxxxx = liquid-equivalent precipitation accumulated during the last hour to hundredths of inches (P0050 = .5 inch of rain in the past hour)

Txxxxxxxx is the current Temperature and Dew point. The first 4 digits are temperature. The second 4 digits are Dew Point. The first digit of each group is either 0 for above zero Celsius or 1 for below zero Celsius. (eq. T00251015 = Temp +2.5C, Dew Pt -1.5C)







KSAC





KSMF





KMHR





KMCC





KEDU





KBLU





KTRK





KTVL





KRNO





KCEC





KPDX





KSEA





William R Fairchild International (Port Angeles, WA Intl Apt) (KCLM)